Data for 11/28/2006

Time Sea-Level Adjusted Pressure Absolute Pressure Temperature Relative Humidity Dew Point   
(mb) (inHg) (mb) (inHg) (C) (F) (%) (C) (F)
00:05 1008 29.77 837 24.72 -17 1.4 85 -18.9 -2.1
00:10 1008 29.77 837 24.72 -16.9 1.5 85 -19 -2.1
00:15 1008 29.77 837 24.72 -17 1.4 84 -19.2 -2.5
00:20 1008 29.77 837 24.72 -17.1 1.1 84 -19.2 -2.6
00:25 1008 29.77 837 24.72 -17.1 1.1 84 -19.2 -2.6
00:30 1008 29.77 837 24.72 -17.1 1.2 84 -19.2 -2.6
00:35 1008 29.77 837 24.72 -17.2 1.1 85 -19.1 -2.5
00:40 1008 29.77 837 24.72 -17.1 1.2 84 -19.2 -2.5
00:45 1008 29.77 837 24.72 -17.2 1.1 84 -19.2 -2.6
00:50 1008 29.77 837 24.72 -17.2 1 84 -19.4 -2.9
00:55 1008 29.77 837 24.72 -17.3 0.9 84 -19.3 -2.7
01:00 1008 29.77 837 24.72 -17.2 1.1 85 -19.2 -2.5
01:05 1008 29.77 837 24.72 -17.1 1.1 85 -19.2 -2.5
01:10 1008 29.77 837 24.72 -17.1 1.2 84 -19.2 -2.6
01:15 1008 29.77 837 24.72 -17.2 1.1 85 -19.2 -2.5
01:20 1008 29.77 837 24.72 -17.1 1.2 83 -19.3 -2.7
01:25 1008 29.77 838 24.75 -17.2 1.1 84 -19.3 -2.8
01:30 1008 29.77 837 24.72 -17.2 1 84 -19.3 -2.8
01:35 1008 29.77 837 24.72 -17.3 0.9 83 -19.4 -3
01:40 1008 29.77 838 24.75 -17.4 0.8 83 -19.6 -3.3
01:45 1008 29.77 838 24.75 -17.4 0.6 83 -19.6 -3.3
01:50 1008 29.77 838 24.75 -17.5 0.5 83 -19.7 -3.5
01:55 1008 29.77 838 24.75 -17.6 0.4 83 -19.8 -3.6
02:00 1008 29.77 837 24.72 -17.6 0.3 84 -19.7 -3.5
02:05 1008 29.77 837 24.72 -17.6 0.3 83 -19.8 -3.6
02:10 1008 29.77 837 24.72 -17.6 0.2 83 -19.9 -3.7
02:15 1008 29.77 838 24.75 -17.7 0.2 83 -19.9 -3.8
02:20 1008 29.77 838 24.75 -17.7 0.1 83 -19.9 -3.8
02:25 1008 29.77 838 24.75 -17.8 0 84 -19.9 -3.8
02:30 1009 29.8 838 24.75 -17.7 0.1 83 -19.9 -3.8
02:35 1009 29.8 838 24.75 -17.8 0.1 84 -19.9 -3.8
02:40 1009 29.8 838 24.75 -17.8 -0 83 -20.1 -4.1
02:45 1009 29.8 838 24.75 -17.9 -0.2 82 -20.2 -4.4
02:50 1009 29.8 838 24.75 -18 -0.4 82 -20.3 -4.6
02:55 1009 29.8 838 24.75 -18.1 -0.5 83 -20.3 -4.5
03:00 1009 29.8 838 24.75 -18.1 -0.5 83 -20.4 -4.6
03:05 1009 29.8 838 24.75 -18.1 -0.7 83 -20.4 -4.7
03:10 1009 29.8 838 24.75 -18.2 -0.7 83 -20.4 -4.8
03:15 1009 29.8 838 24.75 -18.3 -0.9 83 -20.5 -4.9
03:20 1009 29.8 838 24.75 -18.2 -0.8 83 -20.5 -4.8
03:25 1009 29.8 838 24.75 -18.3 -1 83 -20.5 -4.9
03:30 1009 29.8 838 24.75 -18.4 -1.1 83 -20.6 -5.1
03:35 1009 29.8 838 24.75 -18.4 -1.2 84 -20.5 -5
03:40 1009 29.8 838 24.75 -18.5 -1.2 83 -20.7 -5.2
03:45 1009 29.8 838 24.75 -18.6 -1.4 84 -20.7 -5.2
03:50 1009 29.8 838 24.75 -18.6 -1.5 83 -20.8 -5.4
03:55 1009 29.8 838 24.75 -18.9 -2 85 -20.9 -5.6
04:00 1009 29.8 838 24.75 -19 -2.2 85 -20.9 -5.7
04:05 1009 29.8 838 24.75 -18.8 -1.9 84 -20.8 -5.5
04:10 1009 29.8 838 24.75 -18.7 -1.7 84 -20.8 -5.4
04:15 1009 29.8 838 24.75 -18.7 -1.6 84 -20.8 -5.4
04:20 1009 29.8 838 24.75 -18.7 -1.7 84 -20.8 -5.5
04:25 1009 29.8 838 24.75 -18.7 -1.6 84 -20.8 -5.4
04:30 1009 29.8 838 24.75 -18.7 -1.6 83 -20.9 -5.6
04:35 1009 29.8 838 24.75 -18.7 -1.7 84 -20.8 -5.5
04:40 1009 29.8 838 24.75 -18.7 -1.6 83 -20.9 -5.5
04:45 1009 29.8 838 24.75 -18.7 -1.7 83 -21 -5.7
04:50 1009 29.8 838 24.75 -18.8 -1.8 83 -21 -5.7
04:55 1009 29.8 838 24.75 -18.9 -1.9 83 -21 -5.9
05:00 1009 29.8 838 24.75 -19 -2.1 83 -21.1 -6
05:05 1009 29.8 838 24.75 -19 -2.3 84 -21.2 -6.1
05:10 1009 29.8 838 24.75 -19 -2.2 84 -21.1 -6
05:15 1009 29.8 838 24.75 -18.9 -2.1 83 -21.1 -5.9
05:20 1009 29.8 838 24.75 -19 -2.2 83 -21.2 -6.2
05:25 1009 29.8 838 24.75 -19.1 -2.3 83 -21.3 -6.3
05:30 1009 29.8 838 24.75 -19.2 -2.6 83 -21.4 -6.6
05:35 1009 29.8 838 24.75 -19.4 -2.9 83 -21.6 -6.8
05:40 1009 29.8 839 24.78 -19.5 -3.1 83 -21.6 -7
05:45 1009 29.8 839 24.78 -19.5 -3.1 83 -21.6 -7
05:50 1009 29.8 839 24.78 -19.4 -2.9 84 -21.5 -6.7
05:55 1009 29.8 839 24.78 -19.4 -2.9 83 -21.5 -6.8
06:00 1009 29.8 839 24.78 -19.5 -3 83 -21.6 -6.9
06:05 1009 29.8 839 24.78 -19.5 -3 84 -21.5 -6.7
06:10 1009 29.8 839 24.78 -19.2 -2.5 84 -21.3 -6.3
06:15 1009 29.8 839 24.78 -19.1 -2.4 84 -21.2 -6.1
06:20 1010 29.83 839 24.78 -19 -2.2 84 -21 -5.8
06:25 1010 29.83 839 24.78 -18.9 -2 83 -21.1 -5.9
06:30 1010 29.83 839 24.78 -18.9 -1.9 83 -21.1 -5.9
06:35 1010 29.83 839 24.78 -19 -2.1 83 -21.1 -6
06:40 1010 29.83 839 24.78 -19 -2.1 83 -21.1 -6
06:45 1010 29.83 839 24.78 -19 -2.2 83 -21.1 -6.1
06:50 1010 29.83 839 24.78 -18.9 -2 84 -21 -5.9
06:55 1010 29.83 839 24.78 -18.9 -2 83 -21.1 -5.9
07:00 1010 29.83 839 24.78 -18.9 -2.1 83 -21.2 -6.1
07:05 1010 29.83 839 24.78 -19 -2.1 83 -21.2 -6.2
07:10 1010 29.83 839 24.78 -19 -2.2 82 -21.4 -6.5
07:15 1010 29.83 839 24.78 -19.1 -2.4 82 -21.4 -6.5
07:20 1010 29.83 839 24.78 -19.1 -2.4 82 -21.4 -6.6
07:25 1010 29.83 839 24.78 -19.1 -2.3 82 -21.4 -6.5
07:30 1010 29.83 839 24.78 -19 -2.2 82 -21.3 -6.4
07:35 1010 29.83 839 24.78 -19 -2.3 82 -21.4 -6.5
07:40 1010 29.83 840 24.81 -19.1 -2.3 82 -21.3 -6.4
07:45 1010 29.83 840 24.81 -19.1 -2.4 82 -21.4 -6.5
07:50 1010 29.83 840 24.81 -19.2 -2.5 82 -21.5 -6.8
07:55 1010 29.83 840 24.81 -19.2 -2.6 82 -21.5 -6.7
08:00 1010 29.83 840 24.81 -19.2 -2.6 82 -21.6 -6.9
08:05 1010 29.83 840 24.81 -19.2 -2.5 82 -21.5 -6.7
08:10 1010 29.83 840 24.81 -19.2 -2.6 82 -21.6 -6.9
08:15 1010 29.83 840 24.81 -19.2 -2.6 82 -21.6 -6.9
08:20 1010 29.83 840 24.81 -19.2 -2.5 82 -21.5 -6.7
08:25 1010 29.83 840 24.81 -19 -2.3 82 -21.4 -6.5
08:30 1011 29.85 840 24.81 -19 -2.2 81 -21.4 -6.6
08:35 1011 29.85 840 24.81 -19 -2.1 81 -21.4 -6.6
08:40 1011 29.85 840 24.81 -19 -2.2 82 -21.3 -6.4
08:45 1011 29.85 840 24.81 -18.9 -2.1 80 -21.5 -6.7
08:50 1011 29.85 840 24.81 -19 -2.2 81 -21.5 -6.7
08:55 1011 29.85 840 24.81 -18.9 -2 81 -21.5 -6.6
09:00 1011 29.85 840 24.81 -18.9 -2 80 -21.4 -6.6
09:05 1011 29.85 840 24.81 -18.7 -1.7 81 -21.3 -6.3
09:10 1011 29.85 840 24.81 -18.6 -1.5 80 -21.3 -6.3
09:15 1011 29.85 840 24.81 -18.4 -1.1 80 -21 -5.8
09:20 1011 29.85 840 24.81 -17.7 0.2 79 -20.5 -4.9
09:25 1011 29.85 840 24.81 -17.3 0.9 76 -20.5 -4.9
09:30 1011 29.85 840 24.81 -17.8 -0.1 77 -20.9 -5.6
09:35 1011 29.85 840 24.81 -17.7 0.1 77 -20.8 -5.4
09:40 1011 29.85 840 24.81 -17.6 0.3 77 -20.7 -5.3
09:45 1011 29.85 840 24.81 -17.8 0.1 77 -20.9 -5.6
09:50 1011 29.85 840 24.81 -17.8 -0 77 -21 -5.8
09:55 1011 29.85 840 24.81 -17.9 -0.1 78 -20.8 -5.5
10:00 1011 29.85 840 24.81 -16.9 1.7 74 -20.5 -4.9
10:05 1011 29.85 840 24.81 -16.2 2.8 71 -20.3 -4.5
10:10 1011 29.85 840 24.81 -16.3 2.7 72 -20.2 -4.3
10:15 1011 29.85 840 24.81 -16.5 2.3 71 -20.6 -5
10:20 1011 29.85 840 24.81 -16.7 2 71 -20.7 -5.3
10:25 1011 29.85 840 24.81 -16.3 2.8 69 -20.6 -5.2
10:30 1011 29.85 841 24.83 -16.7 1.9 72 -20.6 -5.2
10:35 1011 29.85 841 24.83 -17.2 1 74 -20.8 -5.4
10:40 1011 29.85 841 24.83 -16.6 2 71 -20.7 -5.3
10:45 1011 29.85 841 24.83 -16.3 2.7 72 -20.3 -4.5
10:50 1012 29.88 841 24.83 -16 3.3 69 -20.3 -4.6
10:55 1012 29.88 841 24.83 -15.4 4.4 68 -20.1 -4.1
11:00 1012 29.88 841 24.83 -15.5 4 68 -20.2 -4.4
11:05 1012 29.88 841 24.83 -16.1 3 69 -20.5 -4.9
11:10 1012 29.88 841 24.83 -16.2 2.8 70 -20.5 -4.9
11:15 1012 29.88 841 24.83 -16.3 2.7 69 -20.7 -5.3
11:20 1011 29.85 841 24.83 -16.7 2 72 -20.6 -5.1
11:25 1011 29.85 841 24.83 -16.4 2.6 72 -20.4 -4.6
11:30 1011 29.85 841 24.83 -16.4 2.4 71 -20.5 -5
11:35 1011 29.85 841 24.83 -16.6 2.2 72 -20.5 -5
11:40 1011 29.85 840 24.81 -16.4 2.5 72 -20.3 -4.6
11:45 1011 29.85 840 24.81 -16.5 2.4 71 -20.6 -5.1
11:50 1011 29.85 840 24.81 -16.9 1.5 73 -20.6 -5.1
11:55 1011 29.85 840 24.81 -16.6 2.2 72 -20.5 -5
12:00 1011 29.85 840 24.81 -16.3 2.6 72 -20.3 -4.5
12:05 1011 29.85 840 24.81 -16.2 2.9 72 -20.2 -4.4
12:10 1011 29.85 840 24.81 -16.1 3.1 69 -20.5 -4.9
12:15 1011 29.85 840 24.81 -15.4 4.3 68 -20 -4
12:20 1011 29.85 840 24.81 -14.7 5.6 64 -20 -4.1
12:25 1011 29.85 840 24.81 -14.7 5.5 63 -20.3 -4.5
12:30 1011 29.85 840 24.81 -14.9 5.2 65 -20.1 -4.1
12:35 1011 29.85 841 24.83 -14.6 5.8 65 -19.8 -3.6
12:40 1011 29.85 840 24.81 -15 5 65 -20.2 -4.4
12:45 1011 29.85 840 24.81 -16 3.3 68 -20.5 -5
12:50 1011 29.85 840 24.81 -16.2 2.9 69 -20.6 -5
12:55 1011 29.85 840 24.81 -16.3 2.6 71 -20.5 -4.9
13:00 1011 29.85 841 24.83 -16.3 2.6 69 -20.7 -5.2
13:05 1011 29.85 841 24.83 -16.3 2.6 71 -20.5 -4.9
13:10 1011 29.85 840 24.81 -16.5 2.4 71 -20.6 -5.2
13:15 1011 29.85 841 24.83 -16.7 2 69 -21.1 -6
13:20 1011 29.85 840 24.81 -16.8 1.8 72 -20.7 -5.2
13:25 1011 29.85 840 24.81 -16.8 1.8 72 -20.7 -5.2
13:30 1011 29.85 840 24.81 -16.6 2.1 71 -20.8 -5.4
13:35 1011 29.85 840 24.81 -16.6 2.1 72 -20.5 -5
13:40 1011 29.85 840 24.81 -16.4 2.4 70 -20.7 -5.3
13:45 1011 29.85 841 24.83 -16.5 2.3 71 -20.6 -5.1
13:50 1011 29.85 841 24.83 -16.3 2.7 70 -20.5 -4.9
13:55 1011 29.85 841 24.83 -16 3.2 70 -20.4 -4.7
14:00 1011 29.85 841 24.83 -16.2 2.9 70 -20.4 -4.7
14:05 1011 29.85 841 24.83 -16.3 2.6 71 -20.4 -4.6
14:10 1011 29.85 841 24.83 -16.2 2.8 70 -20.6 -5
14:15 1011 29.85 841 24.83 -16.2 2.9 68 -20.7 -5.3
14:20 1011 29.85 841 24.83 -16.1 3 68 -20.7 -5.3
14:25 1012 29.88 841 24.83 -16.4 2.5 70 -20.6 -5.1
14:30 1012 29.88 841 24.83 -16.7 2 71 -20.8 -5.5
14:35 1012 29.88 841 24.83 -16.5 2.2 69 -21 -5.8
14:40 1012 29.88 841 24.83 -16.3 2.8 67 -21 -5.8
14:45 1012 29.88 841 24.83 -16.4 2.5 68 -20.9 -5.7
14:50 1012 29.88 841 24.83 -16.4 2.5 68 -21 -5.8
14:55 1012 29.88 841 24.83 -16 3.2 67 -20.9 -5.6
15:00 1012 29.88 841 24.83 -16.4 2.6 70 -20.7 -5.2
15:05 1012 29.88 841 24.83 -16.6 2.1 71 -20.7 -5.3
15:10 1012 29.88 841 24.83 -16.6 2.1 70 -20.9 -5.6
15:15 1012 29.88 841 24.83 -16.8 1.8 70 -21 -5.7
15:20 1012 29.88 841 24.83 -16.8 1.7 71 -20.9 -5.6
15:25 1012 29.88 841 24.83 -16.7 1.9 71 -20.8 -5.5
15:30 1012 29.88 841 24.83 -16.8 1.7 72 -20.8 -5.4
15:35 1012 29.88 841 24.83 -16.9 1.5 72 -20.9 -5.6
15:40 1012 29.88 841 24.83 -16.9 1.6 72 -20.9 -5.5
15:45 1012 29.88 841 24.83 -17 1.4 73 -20.8 -5.4
15:50 1012 29.88 842 24.86 -17 1.4 72 -20.9 -5.6
15:55 1012 29.88 842 24.86 -16.9 1.6 71 -20.9 -5.7
16:00 1013 29.91 842 24.86 -16.9 1.6 71 -20.9 -5.7
16:05 1013 29.91 842 24.86 -17.1 1.1 72 -21 -5.8
16:10 1013 29.91 842 24.86 -17.3 0.9 72 -21.1 -6
16:15 1013 29.91 842 24.86 -17.5 0.5 73 -21.2 -6.1
16:20 1013 29.91 842 24.86 -17.5 0.5 73 -21.2 -6.2
16:25 1013 29.91 842 24.86 -17.7 0.1 75 -21.2 -6.1
16:30 1013 29.91 842 24.86 -17.9 -0.3 76 -21.2 -6.2
16:35 1013 29.91 842 24.86 -18 -0.3 75 -21.3 -6.4
16:40 1013 29.91 842 24.86 -18 -0.5 76 -21.3 -6.3
16:45 1013 29.91 842 24.86 -18 -0.4 76 -21.2 -6.2
16:50 1013 29.91 843 24.89 -18.1 -0.6 78 -21.1 -6.1
16:55 1013 29.91 843 24.89 -18.2 -0.7 78 -21.1 -6
17:00 1013 29.91 843 24.89 -18.1 -0.5 78 -21.1 -5.9
17:05 1013 29.91 843 24.89 -18.1 -0.6 78 -21 -5.8
17:10 1014 29.94 843 24.89 -18.3 -0.9 79 -21.1 -6.1
17:15 1014 29.94 843 24.89 -18.4 -1.2 79 -21.2 -6.2
17:20 1014 29.94 843 24.89 -18.4 -1.1 79 -21.2 -6.2
17:25 1014 29.94 843 24.89 -18.4 -1.2 79 -21.3 -6.3
17:30 1014 29.94 843 24.89 -18.5 -1.3 80 -21.2 -6.1
17:35 1014 29.94 843 24.89 -18.4 -1.2 80 -21.1 -6.1
17:40 1014 29.94 843 24.89 -18.3 -1 79 -21.2 -6.1
17:45 1014 29.94 843 24.89 -18.3 -0.9 79 -21.1 -6
17:50 1014 29.94 843 24.89 -18.4 -1.2 80 -21.1 -6.1
17:55 1014 29.94 843 24.89 -18.5 -1.4 78 -21.4 -6.6
18:00 1014 29.94 843 24.89 -18.8 -1.8 81 -21.3 -6.4
18:05 1014 29.94 843 24.89 -18.8 -1.8 81 -21.2 -6.2
18:10 1014 29.94 843 24.89 -18.6 -1.5 80 -21.3 -6.3
18:15 1014 29.94 844 24.92 -18.8 -1.8 81 -21.3 -6.4
18:20 1014 29.94 844 24.92 -18.7 -1.6 80 -21.3 -6.3
18:25 1014 29.94 844 24.92 -18.7 -1.6 80 -21.2 -6.2
18:30 1015 29.97 844 24.92 -18.7 -1.7 80 -21.3 -6.4
18:35 1014 29.94 844 24.92 -18.6 -1.6 81 -21.2 -6.1
18:40 1015 29.97 844 24.92 -18.6 -1.4 80 -21.2 -6.1
18:45 1015 29.97 844 24.92 -18.5 -1.3 79 -21.3 -6.3
18:50 1015 29.97 844 24.92 -18.6 -1.5 79 -21.4 -6.6
18:55 1015 29.97 844 24.92 -18.7 -1.7 80 -21.4 -6.5
19:00 1015 29.97 844 24.92 -18.8 -1.8 80 -21.4 -6.5
19:05 1015 29.97 844 24.92 -18.8 -1.9 80 -21.5 -6.7
19:10 1015 29.97 844 24.92 -18.9 -2 80 -21.4 -6.6
19:15 1015 29.97 844 24.92 -18.8 -1.9 81 -21.4 -6.5
19:20 1015 29.97 844 24.92 -18.9 -1.9 81 -21.4 -6.5
19:25 1015 29.97 844 24.92 -18.9 -2.1 81 -21.5 -6.7
19:30 1015 29.97 844 24.92 -19.2 -2.5 81 -21.7 -7
19:35 1015 29.97 844 24.92 -19.4 -3 83 -21.7 -7
19:40 1015 29.97 844 24.92 -19.4 -2.8 82 -21.7 -7
19:45 1015 29.97 844 24.92 -19.5 -3.1 82 -21.8 -7.3
19:50 1015 29.97 845 24.95 -19.5 -3.2 83 -21.8 -7.2
19:55 1015 29.97 845 24.95 -19.6 -3.3 83 -21.7 -7.1
20:00 1015 29.97 845 24.95 -19.6 -3.2 84 -21.7 -7.1
20:05 1016 30 845 24.95 -19.5 -3.1 84 -21.6 -6.8
20:10 1016 30 845 24.95 -19.5 -3.2 83 -21.7 -7.1
20:15 1016 30 845 24.95 -19.6 -3.2 83 -21.7 -7.1
20:20 1016 30 845 24.95 -19.5 -3.2 83 -21.7 -7.1
20:25 1016 30 845 24.95 -19.5 -3.1 83 -21.7 -7.1
20:30 1016 30 845 24.95 -19.5 -3 82 -21.7 -7.1
20:35 1016 30 845 24.95 -19.6 -3.2 83 -21.8 -7.2
20:40 1016 30 845 24.95 -19.6 -3.2 83 -21.8 -7.2
20:45 1016 30 845 24.95 -19.6 -3.3 83 -21.8 -7.2
20:50 1016 30 845 24.95 -19.7 -3.5 83 -21.9 -7.5
20:55 1016 30 845 24.95 -19.8 -3.7 83 -22 -7.6
21:00 1016 30 846 24.98 -20.1 -4.2 84 -22.1 -7.8
21:05 1016 30 846 24.98 -20.1 -4.1 85 -22 -7.6
21:10 1016 30 846 24.98 -20 -3.9 84 -22 -7.6
21:15 1016 30 846 24.98 -20 -3.9 84 -22.1 -7.7
21:20 1016 30 846 24.98 -20 -4 83 -22.1 -7.9
21:25 1017 30.03 846 24.98 -20.2 -4.4 83 -22.5 -8.4
21:30 1017 30.03 846 24.98 -20.4 -4.7 83 -22.5 -8.5
21:35 1017 30.03 846 24.98 -20.6 -5 83 -22.7 -8.8
21:40 1017 30.03 846 24.98 -20.6 -5 84 -22.7 -8.8
21:45 1017 30.03 846 24.98 -20.8 -5.4 84 -22.8 -9
21:50 1017 30.03 846 24.98 -20.9 -5.6 84 -22.9 -9.2
21:55 1017 30.03 846 24.98 -20.9 -5.6 84 -23 -9.3
22:00 1017 30.03 846 24.98 -20.8 -5.5 83 -23 -9.4
22:05 1017 30.03 846 24.98 -20.9 -5.6 82 -23.2 -9.7
22:10 1017 30.03 846 24.98 -21.2 -6.1 83 -23.3 -10
22:15 1017 30.03 846 24.98 -21 -5.8 83 -23.2 -9.7
22:20 1017 30.03 846 24.98 -20.8 -5.5 83 -23 -9.5
22:25 1017 30.03 846 24.98 -20.9 -5.6 80 -23.5 -10.2
22:30 1017 30.03 846 24.98 -21.7 -7 78 -24.5 -12.1
22:35 1017 30.03 846 24.98 -22.4 -8.3 81 -24.8 -12.6
22:40 1017 30.03 846 24.98 -22.6 -8.6 82 -24.8 -12.7
22:45 1017 30.03 846 24.98 -22.7 -8.8 82 -25 -12.9
22:50 1017 30.03 846 24.98 -22.7 -8.8 83 -24.8 -12.6
22:55 1017 30.03 846 24.98 -22.3 -8.2 84 -24.4 -11.9
23:00 1017 30.03 846 24.98 -22.3 -8.1 84 -24.3 -11.8
23:05 1017 30.03 846 24.98 -22.3 -8.2 84 -24.4 -11.9
23:10 1017 30.03 846 24.98 -22.4 -8.4 84 -24.4 -11.9
23:15 1017 30.03 846 24.98 -22.4 -8.3 84 -24.4 -12
23:20 1017 30.03 847 25.01 -22.7 -8.9 84 -24.8 -12.6
23:25 1017 30.03 847 25.01 -23.1 -9.5 84 -25.1 -13.1
23:30 1017 30.03 847 25.01 -22.8 -9 84 -24.8 -12.6
23:35 1017 30.03 847 25.01 -22.6 -8.6 83 -24.7 -12.5
23:40 1018 30.06 847 25.01 -22.5 -8.5 83 -24.7 -12.4
23:45 1018 30.06 847 25.01 -22.6 -8.6 83 -24.7 -12.5
23:50 1018 30.06 847 25.01 -22.6 -8.7 83 -24.8 -12.6
23:55 1018 30.06 847 25.01 -22.6 -8.7 84 -24.7 -12.4
24:00 1018 30.06 847 25.01 -22.5 -8.4 83 -24.6 -12.2